Clam Gulch, AK (99568)

7:29 PM AKDT on October 24, 2014 (GMT -0800)
RAWS NINILCHIK AK US | Change Station
CLOSE
Current Station
Personal Weather Station
Location: Ninilchik, AK
Elevation: 360 ft
Nearby Weather Stations

Elev 360 ft 60.01 °N, 151.54 °W | Updated 37 minutes ago

Overcast
Overcast
34 °F
Feels Like 34 °F
N
1
Wind Variable Wind from North
Gusts 5.0 mph

Today
High -- | Low -- °F
--% Chance of Precip.
Yesterday
High -- | Low -- °F
Precip. -- in
9:08 AM 6:29 PM
New Moon, 2% visible
Pressure 29.88 in
Visibility 10.0 miles
Clouds Overcast 6000 ft
Windchill 34 °F
Dew Point 27 °F
Humidity 74%
Rainfall 0.00 in
Snow Depth Not available.
UV 0 out of 12
Pollen Not available.
Air Quality Not available.
Flu Activity Local Activity
METAR PASX 250316Z AUTO 09003KT 10SM OVC060 01/M05 A2988 RMK AO1

More Conditions Fewer Conditions

Pressure 29.88 in
Visibility 10.0 miles
Clouds Overcast 6000 ft
Windchill 34 °F
Dew Point 27 °F
Humidity 74%
Rainfall 0.00 in
Snow Depth Not available.
UV 0 out of 12
Pollen Not available.
Air Quality Not available.
Flu Activity Local Activity
METAR PASX 250316Z AUTO 09003KT 10SM OVC060 01/M05 A2988 RMK AO1

More Conditions Fewer Conditions

10-Day Weather Forecast

Almanac

Astronomy

Oct. 24, 2014 Rise Set
Actual Time 9:08 AM AKDT 6:29 PM AKDT
Civil Twilight 8:24 AM AKDT 7:13 PM AKDT
Nautical Twilight 7:35 AM AKDT 8:02 PM AKDT
Astronomical Twilight 6:47 AM AKDT 8:50 PM AKDT
Moon 10:09 AM AKDT (10/24) 7:01 PM AKDT (10/24)
Length of Visible Light 10h 48m
Length of Day
9h 21m
Tomorrow will be 5m 21s shorter.
New Moon, 2% of the Moon is Illuminated
Today
New Moon
Oct 30
First Quarter
Nov 6
Full
Nov 14
Last Quarter
Nov 22
New

Today's Extremes

State Highs State Lows

Community

WunderPhotos

Upload Photos

1,764,769 photos uploaded!

Nearby

Snow Depth

Station Depth Elevation
Mcneil Canyon 1 in 1320 ft
MF Bradley River 0 in 2300 ft
Cooper Lake 1 in 1200 ft
Port Graham 0 in 300 ft
Summit Creek 3 in 1400 ft

Earthquake Activity

City Distance Mag. Time & Date
No recent earthquake activity has been reported nearby.
Minimum magnitude displayed is 2.5.

Coastal Water Temperatures

Place Temperature
No Stations Reporting

Nearby Weather Stations